createdAt,value
2023-03-29T00:02:20.823Z,0.09
2023-03-29T00:07:26.753Z,-0.41
2023-03-29T00:12:30.058Z,-0.11
2023-03-29T00:17:33.927Z,0.20
2023-03-29T00:22:38.424Z,0.34
2023-03-29T00:27:42.055Z,-0.26
2023-03-29T00:32:46.802Z,-0.68
2023-03-29T00:37:51.679Z,0.11
2023-03-29T00:42:57.042Z,-0.42
2023-03-29T00:48:06.739Z,0.17
2023-03-29T00:53:18.839Z,-0.79
2023-03-29T00:58:39.059Z,-0.47
2023-03-29T01:03:49.049Z,-0.14
2023-03-29T01:09:00.914Z,-0.21
2023-03-29T01:14:12.612Z,0.24
2023-03-29T01:19:20.917Z,-0.25
2023-03-29T01:24:42.669Z,0.57
2023-03-29T01:29:55.010Z,0.58
2023-03-29T01:35:11.113Z,0.29
2023-03-29T01:40:14.456Z,0.59
2023-03-29T01:45:25.888Z,0.66
2023-03-29T01:50:42.349Z,0.61
2023-03-29T01:55:52.750Z,0.20
2023-03-29T02:00:58.933Z,0.41
2023-03-29T02:06:03.972Z,0.91
2023-03-29T02:11:08.512Z,0.12
2023-03-29T02:16:14.026Z,1.03
2023-03-29T02:21:25.153Z,0.91
2023-03-29T02:26:35.123Z,0.74
2023-03-29T02:31:46.254Z,0.37
2023-03-29T02:37:04.145Z,-0.63
2023-03-29T02:42:09.824Z,0.33
2023-03-29T02:47:26.000Z,1.13
2023-03-29T02:52:36.633Z,-0.02
2023-03-29T02:57:41.785Z,0.91
2023-03-29T03:02:45.292Z,1.34
2023-03-29T03:07:48.745Z,-0.13
2023-03-29T03:12:52.613Z,-0.33
2023-03-29T03:17:56.915Z,0.79
2023-03-29T03:23:00.304Z,0.82
2023-03-29T03:28:03.666Z,0.43
2023-03-29T03:33:06.976Z,-0.39
2023-03-29T03:38:11.675Z,0.32
2023-03-29T03:43:15.204Z,0.63
2023-03-29T03:48:19.241Z,0.96
2023-03-29T03:53:24.663Z,0.98
2023-03-29T03:58:28.235Z,0.16
2023-03-29T04:03:32.549Z,1.65
2023-03-29T04:08:36.145Z,1.37
2023-03-29T04:13:39.752Z,1.29
2023-03-29T04:18:43.275Z,0.66
2023-03-29T04:23:57.102Z,1.64
2023-03-29T04:29:00.556Z,1.29
2023-03-29T04:34:04.657Z,0.49
2023-03-29T04:39:08.955Z,0.29
2023-03-29T04:44:13.141Z,1.15
2023-03-29T04:49:17.565Z,0.80
2023-03-29T04:54:21.816Z,-0.06
2023-03-29T04:59:25.231Z,0.96
2023-03-29T05:04:29.387Z,1.47
2023-03-29T05:09:35.404Z,0.29
2023-03-29T05:14:38.922Z,1.78
2023-03-29T05:19:44.545Z,1.32
2023-03-29T05:24:48.230Z,1.31
2023-03-29T05:29:52.207Z,2.13
2023-03-29T05:35:06.868Z,1.83
2023-03-29T05:40:10.954Z,1.23
2023-03-29T05:45:14.573Z,0.84
2023-03-29T05:50:18.251Z,2.24
2023-03-29T05:55:21.848Z,1.93
2023-03-29T06:00:29.186Z,0.99
2023-03-29T06:05:32.644Z,2.38
2023-03-29T06:10:38.521Z,2.21
2023-03-29T06:15:41.840Z,2.81
2023-03-29T06:20:48.998Z,2.06
2023-03-29T06:25:52.800Z,1.70
2023-03-29T06:30:57.388Z,2.83
2023-03-29T06:36:01.333Z,2.79
2023-03-29T06:41:07.332Z,1.94
2023-03-29T06:46:13.203Z,4.32
2023-03-29T06:51:16.831Z,5.85
2023-03-29T06:56:20.615Z,6.37
2023-03-29T07:01:25.141Z,6.00
2023-03-29T07:06:28.652Z,7.52
2023-03-29T07:11:42.793Z,6.07
2023-03-29T07:16:47.823Z,8.02
2023-03-29T07:21:52.663Z,7.96
2023-03-29T07:27:04.136Z,8.14
2023-03-29T07:32:08.189Z,7.42
2023-03-29T07:37:12.317Z,8.75
2023-03-29T07:42:16.121Z,7.60
2023-03-29T07:47:19.875Z,9.01
2023-03-29T07:52:23.547Z,8.85
2023-03-29T07:57:28.402Z,8.66
2023-03-29T08:02:32.046Z,8.78
2023-03-29T08:07:35.397Z,9.13
2023-03-29T08:12:39.210Z,8.96
2023-03-29T08:17:43.256Z,9.28
2023-03-29T08:22:46.916Z,8.47
2023-03-29T08:27:50.316Z,9.55
2023-03-29T08:32:55.276Z,10.27
2023-03-29T08:37:58.850Z,10.23
2023-03-29T08:43:31.539Z,11.30
2023-03-29T08:48:48.944Z,10.88
2023-03-29T08:54:34.750Z,11.28
2023-03-29T08:59:40.036Z,12.11
2023-03-29T09:04:44.565Z,11.69
2023-03-29T09:10:02.088Z,12.59
2023-03-29T09:15:16.420Z,12.44
2023-03-29T09:20:31.107Z,10.82
2023-03-29T09:26:09.140Z,12.96
2023-03-29T09:31:23.780Z,13.13
2023-03-29T09:36:53.167Z,12.99
2023-03-29T09:42:04.926Z,12.61
2023-03-29T09:47:28.954Z,13.64
2023-03-29T09:52:32.454Z,13.42
2023-03-29T09:57:35.876Z,12.75
2023-03-29T10:02:39.221Z,13.24
2023-03-29T10:07:47.953Z,13.89
2023-03-29T10:12:53.545Z,14.40
2023-03-29T10:18:07.647Z,14.31
2023-03-29T10:23:19.679Z,13.50
2023-03-29T10:28:23.718Z,13.38
2023-03-29T10:33:32.140Z,13.68
2023-03-29T10:38:37.211Z,13.60
2023-03-29T10:43:46.331Z,12.74
2023-03-29T10:48:52.169Z,14.16
2023-03-29T10:53:57.732Z,14.84
2023-03-29T10:59:17.490Z,14.70
2023-03-29T11:04:29.182Z,14.55
2023-03-29T11:09:54.122Z,14.52
2023-03-29T11:15:05.810Z,14.26
2023-03-29T11:20:21.404Z,14.18
2023-03-29T11:25:48.236Z,13.11
2023-03-29T11:31:18.153Z,12.51
2023-03-29T11:36:51.243Z,13.93
2023-03-29T11:41:59.232Z,13.79
2023-03-29T11:47:07.089Z,13.13
2023-03-29T11:52:23.427Z,14.52
2023-03-29T11:57:35.259Z,14.73
2023-03-29T12:02:41.896Z,14.51
2023-03-29T12:07:56.055Z,13.49
2023-03-29T12:13:06.704Z,13.59
2023-03-29T12:18:23.820Z,14.48
2023-03-29T12:23:31.569Z,13.24
2023-03-29T12:29:12.336Z,14.55
2023-03-29T12:34:34.994Z,13.93
2023-03-29T12:39:39.542Z,14.22
2023-03-29T12:44:45.999Z,14.02
2023-03-29T12:49:55.503Z,13.31
2023-03-29T12:55:02.159Z,14.21
2023-03-29T13:00:23.942Z,14.47
2023-03-29T13:05:33.933Z,14.04
2023-03-29T13:10:42.400Z,14.74
2023-03-29T13:15:47.218Z,14.53
2023-03-29T13:21:12.475Z,14.51
2023-03-29T13:26:33.339Z,14.57
2023-03-29T13:31:52.695Z,14.03
2023-03-29T13:37:24.822Z,13.93
2023-03-29T13:42:34.403Z,14.27
2023-03-29T13:47:48.913Z,14.10
2023-03-29T13:53:27.813Z,13.99
2023-03-29T13:58:55.646Z,13.53
2023-03-29T14:04:05.901Z,13.72
2023-03-29T14:09:09.789Z,13.78
2023-03-29T14:14:13.554Z,13.76
2023-03-29T14:19:42.927Z,13.69
2023-03-29T14:24:55.571Z,12.81
2023-03-29T14:29:59.229Z,12.30
2023-03-29T14:35:02.722Z,12.89
2023-03-29T14:40:12.820Z,13.12
2023-03-29T14:45:18.448Z,13.23
2023-03-29T14:50:29.672Z,12.85
2023-03-29T14:55:33.762Z,12.98
2023-03-29T15:00:45.198Z,13.16
2023-03-29T15:05:55.315Z,12.93
2023-03-29T15:10:59.261Z,12.59
2023-03-29T15:16:07.563Z,12.69
2023-03-29T15:21:15.250Z,12.57
2023-03-29T15:26:27.053Z,12.76
2023-03-29T15:31:36.798Z,12.78
2023-03-29T15:36:49.876Z,12.42
2023-03-29T15:41:57.660Z,12.46
2023-03-29T15:47:01.402Z,11.03
2023-03-29T15:52:05.281Z,12.34
2023-03-29T15:57:24.706Z,12.61
2023-03-29T16:02:37.900Z,11.64
2023-03-29T16:07:51.947Z,11.73
2023-03-29T16:12:59.993Z,11.95
2023-03-29T16:18:03.844Z,11.81
2023-03-29T16:23:10.239Z,12.08
2023-03-29T16:28:23.540Z,11.80
2023-03-29T16:33:27.947Z,11.56
2023-03-29T16:38:36.109Z,11.81
2023-03-29T16:43:40.240Z,11.09
2023-03-29T16:48:44.397Z,11.05
2023-03-29T16:53:52.220Z,10.65
2023-03-29T16:58:56.013Z,10.58
2023-03-29T17:03:59.323Z,11.26
2023-03-29T17:09:02.792Z,10.33
2023-03-29T17:14:06.544Z,9.29
2023-03-29T17:19:10.120Z,9.88
2023-03-29T17:24:13.404Z,8.82
2023-03-29T17:29:16.823Z,9.62
2023-03-29T17:34:20.351Z,9.28
2023-03-29T17:39:28.568Z,8.91
2023-03-29T17:44:37.391Z,8.92
2023-03-29T17:49:52.664Z,7.98
2023-03-29T17:55:04.625Z,7.32
2023-03-29T18:00:19.924Z,7.25
2023-03-29T18:05:27.860Z,7.26
2023-03-29T18:10:31.427Z,6.84
2023-03-29T18:15:34.760Z,6.90
2023-03-29T18:20:38.229Z,6.43
2023-03-29T18:25:41.521Z,6.51
2023-03-29T18:30:47.192Z,6.71
2023-03-29T18:35:52.783Z,6.25
2023-03-29T18:40:57.643Z,6.68
2023-03-29T18:46:02.429Z,6.86
2023-03-29T18:51:18.327Z,6.87
2023-03-29T18:56:22.345Z,5.88
2023-03-29T19:01:25.780Z,5.65
2023-03-29T19:06:29.669Z,5.36
2023-03-29T19:11:34.013Z,4.39
2023-03-29T19:16:37.504Z,4.97
2023-03-29T19:21:42.132Z,5.64
2023-03-29T19:26:46.245Z,4.43
2023-03-29T19:31:57.885Z,4.07
2023-03-29T19:37:01.865Z,4.33
2023-03-29T19:42:05.318Z,5.34
2023-03-29T19:47:08.874Z,3.87
2023-03-29T19:52:12.344Z,3.59
2023-03-29T19:57:16.107Z,3.47
2023-03-29T20:02:20.405Z,5.08
2023-03-29T20:07:24.615Z,4.60
2023-03-29T20:12:27.930Z,2.11
2023-03-29T20:17:31.395Z,3.72
2023-03-29T20:22:34.838Z,3.25
2023-03-29T20:27:38.399Z,2.72
2023-03-29T20:32:42.903Z,3.63
2023-03-29T20:37:46.599Z,4.56
2023-03-29T20:42:49.909Z,2.35
2023-03-29T20:47:58.461Z,3.45
2023-03-29T20:53:04.639Z,4.37
2023-03-29T20:58:08.931Z,3.87
2023-03-29T21:03:13.303Z,2.72
2023-03-29T21:08:18.649Z,4.04
2023-03-29T21:13:22.368Z,4.27
2023-03-29T21:18:26.124Z,4.21
2023-03-29T21:23:34.019Z,3.70
2023-03-29T21:28:38.692Z,4.69
2023-03-29T21:33:42.299Z,4.38
2023-03-29T21:38:46.270Z,4.37
2023-03-29T21:43:49.709Z,3.05
2023-03-29T21:49:03.325Z,3.12
2023-03-29T21:54:06.710Z,4.99
2023-03-29T21:59:10.485Z,5.51
2023-03-29T22:04:19.987Z,4.25
2023-03-29T22:09:35.644Z,5.77
2023-03-29T22:14:39.611Z,3.99
2023-03-29T22:19:43.175Z,4.12
2023-03-29T22:24:46.952Z,5.39
2023-03-29T22:29:50.547Z,5.95
2023-03-29T22:34:54.209Z,5.61
2023-03-29T22:39:57.576Z,5.34
2023-03-29T22:45:00.909Z,4.69
2023-03-29T22:50:04.674Z,5.19
2023-03-29T22:55:08.366Z,4.46
2023-03-29T23:00:12.410Z,5.25
2023-03-29T23:05:26.117Z,5.49
2023-03-29T23:10:31.496Z,4.49
2023-03-29T23:15:36.336Z,5.19
2023-03-29T23:20:41.541Z,4.40
2023-03-29T23:25:46.584Z,5.47
2023-03-29T23:31:03.563Z,5.28
2023-03-29T23:36:10.224Z,5.17
2023-03-29T23:41:17.686Z,5.04
2023-03-29T23:46:22.458Z,4.74
2023-03-29T23:51:29.175Z,3.57
2023-03-29T23:56:32.998Z,4.24
